Albany, New York
Traffic Map
Current Weather Conditions
Albany, New York
Few Clouds
Few Clouds
-2°
Feels Like: -2°
Wind Chill: -2° Ceiling: Unl
Heat Index: -2° Visibility: 10mi
Dew Point: -8° Wind: 0mph
Humidity: 64% Direction: ° ()
Pressure: 30.64in Gusts: 0mph
Raw Report DataKALB 170551Z 00000KT 10SM FEW260 M02/M08 A3064 RMK AO2 SLP380 T10171078 10022 21022 51019
Traffic Incident Summary
Active as of:
Severity:
Category:
InformationThere was an issue retrieving the traffic information for this location. Please try a different location or try again shortly.
Advertisements
At Last! Intellicast now available for iPhone and Android